createdAt,value
2018-02-09T00:02:10.427Z,4.30
2018-02-09T00:04:37.876Z,3.81
2018-02-09T00:07:05.374Z,3.73
2018-02-09T00:09:32.953Z,3.28
2018-02-09T00:12:00.481Z,3.39
2018-02-09T00:14:28.027Z,3.49
2018-02-09T00:16:56.237Z,3.24
2018-02-09T00:19:23.908Z,3.42
2018-02-09T00:21:51.360Z,3.41
2018-02-09T00:24:18.820Z,3.31
2018-02-09T00:26:46.345Z,3.65
2018-02-09T00:29:13.930Z,3.57
2018-02-09T00:31:41.544Z,3.62
2018-02-09T00:34:09.005Z,3.91
2018-02-09T00:36:36.545Z,3.77
2018-02-09T00:39:04.023Z,3.79
2018-02-09T00:41:31.718Z,3.99
2018-02-09T00:43:59.993Z,3.59
2018-02-09T00:46:27.614Z,3.47
2018-02-09T00:48:55.089Z,3.51
2018-02-09T00:51:22.533Z,3.56
2018-02-09T00:53:50.483Z,3.50
2018-02-09T00:56:17.907Z,3.74
2018-02-09T00:58:45.523Z,3.75
2018-02-09T01:01:12.984Z,3.72
2018-02-09T01:03:40.441Z,3.89
2018-02-09T01:06:07.905Z,3.74
2018-02-09T01:08:35.352Z,3.80
2018-02-09T01:11:02.842Z,3.45
2018-02-09T01:13:30.509Z,3.00
2018-02-09T01:15:58.001Z,2.73
2018-02-09T01:18:25.797Z,3.22
2018-02-09T01:20:53.247Z,3.56
2018-02-09T01:23:20.760Z,3.75
2018-02-09T01:25:48.234Z,3.94
2018-02-09T01:28:15.657Z,3.81
2018-02-09T01:30:43.288Z,3.51
2018-02-09T01:33:10.735Z,3.06
2018-02-09T01:35:38.176Z,3.91
2018-02-09T01:38:05.633Z,4.08
2018-02-09T01:40:33.106Z,4.13
2018-02-09T01:43:00.902Z,3.87
2018-02-09T01:45:28.410Z,3.53
2018-02-09T01:47:55.841Z,3.99
2018-02-09T01:50:23.353Z,4.11
2018-02-09T01:52:50.800Z,4.10
2018-02-09T01:55:18.304Z,4.04
2018-02-09T01:57:45.815Z,3.87
2018-02-09T02:00:13.325Z,3.32
2018-02-09T02:02:40.824Z,4.00
2018-02-09T02:05:08.329Z,4.20
2018-02-09T02:07:35.786Z,4.15
2018-02-09T02:10:03.238Z,4.12
2018-02-09T02:12:30.737Z,4.50
2018-02-09T02:14:58.169Z,4.26
2018-02-09T02:17:25.612Z,4.38
2018-02-09T02:19:53.071Z,4.27
2018-02-09T02:22:20.626Z,4.46
2018-02-09T02:24:48.086Z,4.50
2018-02-09T02:27:15.531Z,4.42
2018-02-09T02:29:43.162Z,4.25
2018-02-09T02:32:10.632Z,4.34
2018-02-09T02:34:38.364Z,4.48
2018-02-09T02:37:05.838Z,4.50
2018-02-09T02:39:33.301Z,4.20
2018-02-09T02:42:00.939Z,4.56
2018-02-09T02:44:28.416Z,4.61
2018-02-09T02:46:55.855Z,4.21
2018-02-09T02:49:23.378Z,4.02
2018-02-09T02:51:50.812Z,4.40
2018-02-09T02:54:18.331Z,4.19
2018-02-09T02:56:45.757Z,4.12
2018-02-09T02:59:13.253Z,4.14
2018-02-09T03:01:40.696Z,4.64
2018-02-09T03:04:08.142Z,4.77
2018-02-09T03:06:35.563Z,4.71
2018-02-09T03:09:03.085Z,4.59
2018-02-09T03:11:30.501Z,4.34
2018-02-09T03:13:57.932Z,3.89
2018-02-09T03:16:25.377Z,3.75
2018-02-09T03:18:52.841Z,4.55
2018-02-09T03:21:20.289Z,4.45
2018-02-09T03:23:47.716Z,4.67
2018-02-09T03:26:15.171Z,4.20
2018-02-09T03:28:42.618Z,4.49
2018-02-09T03:31:10.064Z,4.67
2018-02-09T03:33:37.513Z,4.73
2018-02-09T03:36:05.121Z,4.82
2018-02-09T03:38:32.654Z,4.86
2018-02-09T03:41:00.621Z,4.27
2018-02-09T03:43:28.152Z,4.02
2018-02-09T03:45:55.610Z,4.01
2018-02-09T03:48:23.045Z,4.17
2018-02-09T03:50:50.517Z,4.16
2018-02-09T03:53:17.943Z,3.91
2018-02-09T03:55:45.370Z,4.16
2018-02-09T03:58:12.812Z,4.18
2018-02-09T04:00:40.266Z,4.14
2018-02-09T04:03:07.719Z,3.89
2018-02-09T04:05:35.149Z,3.96
2018-02-09T04:08:02.626Z,4.06
2018-02-09T04:10:30.867Z,4.11
2018-02-09T04:12:58.432Z,3.91
2018-02-09T04:15:25.854Z,4.00
2018-02-09T04:17:53.320Z,3.78
2018-02-09T04:20:20.769Z,4.03
2018-02-09T04:22:48.226Z,3.98
2018-02-09T04:25:15.665Z,4.14
2018-02-09T04:27:43.157Z,4.17
2018-02-09T04:30:10.604Z,4.31
2018-02-09T04:32:38.483Z,4.21
2018-02-09T04:35:05.946Z,4.10
2018-02-09T04:37:33.376Z,4.20
2018-02-09T04:40:00.945Z,4.33
2018-02-09T04:42:28.414Z,4.23
2018-02-09T04:44:55.849Z,4.03
2018-02-09T04:47:23.342Z,4.12
2018-02-09T04:49:50.834Z,4.47
2018-02-09T04:52:18.304Z,4.11
2018-02-09T04:54:45.790Z,4.17
2018-02-09T04:57:13.209Z,4.43
2018-02-09T04:59:40.658Z,4.57
2018-02-09T05:02:08.097Z,4.65
2018-02-09T05:04:35.553Z,4.69
2018-02-09T05:07:02.984Z,4.41
2018-02-09T05:09:31.349Z,4.32
2018-02-09T05:11:58.793Z,4.10
2018-02-09T05:14:26.236Z,4.54
2018-02-09T05:16:53.682Z,4.45
2018-02-09T05:19:21.132Z,4.62
2018-02-09T05:21:48.575Z,4.51
2018-02-09T05:24:15.993Z,4.50
2018-02-09T05:26:43.489Z,4.59
2018-02-09T05:29:10.908Z,4.52
2018-02-09T05:31:38.362Z,4.34
2018-02-09T05:34:05.833Z,4.42
2018-02-09T05:36:33.275Z,4.37
2018-02-09T05:39:01.206Z,4.34
2018-02-09T05:41:28.657Z,4.69
2018-02-09T05:43:56.182Z,4.60
2018-02-09T05:46:23.654Z,4.19
2018-02-09T05:48:51.088Z,4.59
2018-02-09T05:51:18.588Z,4.20
2018-02-09T05:53:46.134Z,4.34
2018-02-09T05:56:13.584Z,4.14
2018-02-09T05:58:41.017Z,3.72
2018-02-09T06:01:08.502Z,3.40
2018-02-09T06:03:35.936Z,3.69
2018-02-09T06:06:03.372Z,3.54
2018-02-09T06:08:31.534Z,3.71
2018-02-09T06:10:59.353Z,3.73
2018-02-09T06:13:26.809Z,3.60
2018-02-09T06:15:54.258Z,3.39
2018-02-09T06:18:21.711Z,3.68
2018-02-09T06:20:49.149Z,3.55
2018-02-09T06:23:16.592Z,3.47
2018-02-09T06:25:44.043Z,3.44
2018-02-09T06:28:11.529Z,3.67
2018-02-09T06:30:38.960Z,3.47
2018-02-09T06:33:06.458Z,3.75
2018-02-09T06:35:33.880Z,3.63
2018-02-09T06:38:01.382Z,3.79
2018-02-09T06:40:28.824Z,3.32
2018-02-09T06:42:56.274Z,3.33
2018-02-09T06:45:23.702Z,3.35
2018-02-09T06:47:51.124Z,3.73
2018-02-09T06:50:18.681Z,3.99
2018-02-09T06:52:46.262Z,3.77
2018-02-09T06:55:13.722Z,3.85
2018-02-09T06:57:46.726Z,4.10
2018-02-09T07:00:14.177Z,4.03
2018-02-09T07:02:41.650Z,3.76
2018-02-09T07:05:09.105Z,3.85
2018-02-09T07:07:36.531Z,3.36
2018-02-09T07:10:03.996Z,3.63
2018-02-09T07:12:31.552Z,3.79
2018-02-09T07:14:59.005Z,3.83
2018-02-09T07:17:26.523Z,3.69
2018-02-09T07:19:54.004Z,3.45
2018-02-09T07:22:21.631Z,3.53
2018-02-09T07:24:49.124Z,3.83
2018-02-09T07:27:16.546Z,3.78
2018-02-09T07:29:44.011Z,3.96
2018-02-09T07:32:11.477Z,4.04
2018-02-09T07:34:38.920Z,3.97
2018-02-09T07:37:06.416Z,3.63
2018-02-09T07:39:33.917Z,3.44
2018-02-09T07:42:05.722Z,3.60
2018-02-09T07:44:33.151Z,3.31
2018-02-09T07:47:00.596Z,3.82
2018-02-09T07:49:28.025Z,4.06
2018-02-09T07:51:55.488Z,4.02
2018-02-09T07:54:22.941Z,3.85
2018-02-09T07:56:51.229Z,3.61
2018-02-09T07:59:18.666Z,3.67
2018-02-09T08:01:46.108Z,3.91
2018-02-09T08:04:13.575Z,4.07
2018-02-09T08:06:41.017Z,4.06
2018-02-09T08:09:08.459Z,4.26
2018-02-09T08:11:35.984Z,4.17
2018-02-09T08:14:03.498Z,3.84
2018-02-09T08:16:31.761Z,4.03
2018-02-09T08:18:59.204Z,4.34
2018-02-09T08:21:26.660Z,3.74
2018-02-09T08:23:54.104Z,4.10
2018-02-09T08:26:21.615Z,3.88
2018-02-09T08:28:49.073Z,4.33
2018-02-09T08:31:16.569Z,4.58
2018-02-09T08:33:44.025Z,4.44
2018-02-09T08:36:11.461Z,4.61
2018-02-09T08:38:38.941Z,4.40
2018-02-09T08:41:06.368Z,4.14
2018-02-09T08:43:33.907Z,4.30
2018-02-09T08:46:01.880Z,4.16
2018-02-09T08:48:29.356Z,4.18
2018-02-09T08:50:56.785Z,4.36
2018-02-09T08:53:24.238Z,4.13
2018-02-09T08:55:51.690Z,4.12
2018-02-09T08:58:20.133Z,4.52
2018-02-09T09:00:47.706Z,4.26
2018-02-09T09:03:15.237Z,4.08
2018-02-09T09:05:42.676Z,3.80
2018-02-09T09:08:10.118Z,3.82
2018-02-09T09:10:37.556Z,3.92
2018-02-09T09:13:04.998Z,3.88
2018-02-09T09:15:37.258Z,3.81
2018-02-09T09:18:04.685Z,3.91
2018-02-09T09:20:32.241Z,3.96
2018-02-09T09:22:59.707Z,3.91
2018-02-09T09:25:27.174Z,3.96
2018-02-09T09:27:54.659Z,3.94
2018-02-09T09:30:22.209Z,3.84
2018-02-09T09:32:50.108Z,3.57
2018-02-09T09:35:17.573Z,3.56
2018-02-09T09:37:45.015Z,3.71
2018-02-09T09:40:12.529Z,3.91
2018-02-09T09:42:39.969Z,3.78
2018-02-09T09:45:07.487Z,3.84
2018-02-09T09:47:34.939Z,3.97
2018-02-09T09:50:02.390Z,4.70
2018-02-09T09:52:29.869Z,4.19
2018-02-09T09:54:57.312Z,4.16
2018-02-09T09:57:24.752Z,3.73
2018-02-09T09:59:52.192Z,3.62
2018-02-09T10:02:31.439Z,3.58
2018-02-09T10:04:58.859Z,3.84
2018-02-09T10:07:26.367Z,3.94
2018-02-09T10:09:53.835Z,3.84
2018-02-09T10:12:21.636Z,4.40
2018-02-09T10:14:49.081Z,4.21
2018-02-09T10:17:16.524Z,4.58
2018-02-09T10:19:43.958Z,4.83
2018-02-09T10:22:11.416Z,4.82
2018-02-09T10:24:38.849Z,4.61
2018-02-09T10:27:06.299Z,4.47
2018-02-09T10:29:33.800Z,4.64
2018-02-09T10:32:01.266Z,4.63
2018-02-09T10:34:28.700Z,4.50
2018-02-09T10:36:56.154Z,4.72
2018-02-09T10:39:23.620Z,4.86
2018-02-09T10:41:51.074Z,4.75
2018-02-09T10:44:18.529Z,4.89
2018-02-09T10:46:45.989Z,4.88
2018-02-09T10:49:13.432Z,4.74
2018-02-09T10:51:40.932Z,4.56
2018-02-09T10:54:08.456Z,5.02
2018-02-09T10:56:35.897Z,4.62
2018-02-09T10:59:03.347Z,4.75
2018-02-09T11:01:36.769Z,4.47
2018-02-09T11:04:04.222Z,4.55
2018-02-09T11:06:32.396Z,5.06
2018-02-09T11:08:59.855Z,4.82
2018-02-09T11:11:27.321Z,4.76
2018-02-09T11:13:54.762Z,4.30
2018-02-09T11:16:22.204Z,4.54
2018-02-09T11:18:49.662Z,4.25
2018-02-09T11:21:17.087Z,4.71
2018-02-09T11:23:44.535Z,4.92
2018-02-09T11:26:11.973Z,5.05
2018-02-09T11:28:39.416Z,4.89
2018-02-09T11:31:06.869Z,4.96
2018-02-09T11:33:34.326Z,4.65
2018-02-09T11:36:04.732Z,4.59
2018-02-09T11:38:32.612Z,4.86
2018-02-09T11:41:00.130Z,4.53
2018-02-09T11:43:27.618Z,4.84
2018-02-09T11:45:55.090Z,5.13
2018-02-09T11:48:22.545Z,4.40
2018-02-09T11:50:50.090Z,4.51
2018-02-09T11:53:17.537Z,4.64
2018-02-09T11:55:45.000Z,4.91
2018-02-09T11:58:12.459Z,5.01
2018-02-09T12:00:39.916Z,5.43
2018-02-09T12:03:07.417Z,5.09
2018-02-09T12:05:34.864Z,4.96
2018-02-09T12:08:02.520Z,4.92
2018-02-09T12:10:30.059Z,5.33
2018-02-09T12:12:57.525Z,5.03
2018-02-09T12:15:24.971Z,5.28
2018-02-09T12:17:52.433Z,5.18
2018-02-09T12:20:19.948Z,5.09
2018-02-09T12:22:47.403Z,5.41
2018-02-09T12:25:14.954Z,4.78
2018-02-09T12:27:42.458Z,4.81
2018-02-09T12:30:09.972Z,4.96
2018-02-09T12:32:38.046Z,5.38
2018-02-09T12:35:05.504Z,5.24
2018-02-09T12:37:33.004Z,5.12
2018-02-09T12:40:00.473Z,5.33
2018-02-09T12:42:27.944Z,5.35
2018-02-09T12:44:55.409Z,5.11
2018-02-09T12:47:22.866Z,5.35
2018-02-09T12:49:50.340Z,5.14
2018-02-09T12:52:17.775Z,4.91
2018-02-09T12:54:45.217Z,4.92
2018-02-09T12:57:12.721Z,4.62
2018-02-09T12:59:40.214Z,4.64
2018-02-09T13:02:07.716Z,4.73
2018-02-09T13:04:35.223Z,4.80
2018-02-09T13:07:02.933Z,4.74
2018-02-09T13:09:30.469Z,4.70
2018-02-09T13:11:57.916Z,4.86
2018-02-09T13:14:37.153Z,5.32
2018-02-09T13:17:04.588Z,4.79
2018-02-09T13:19:32.936Z,4.70
2018-02-09T13:22:00.372Z,4.73
2018-02-09T13:24:27.821Z,4.94
2018-02-09T13:26:55.253Z,4.98
2018-02-09T13:29:22.740Z,4.92
2018-02-09T13:31:50.171Z,4.99
2018-02-09T13:34:17.643Z,4.75
2018-02-09T13:50:25.730Z,4.98
2018-02-09T13:52:53.190Z,4.53
2018-02-09T13:55:20.644Z,4.83
2018-02-09T13:57:48.130Z,4.77
2018-02-09T14:00:15.571Z,4.90
2018-02-09T14:02:43.068Z,4.98
2018-02-09T14:05:10.496Z,4.68
2018-02-09T14:07:38.312Z,4.77
2018-02-09T14:10:05.779Z,4.78
2018-02-09T14:12:33.241Z,4.63
2018-02-09T14:15:00.676Z,4.56
2018-02-09T14:17:28.135Z,4.62
2018-02-09T14:19:55.585Z,4.80
2018-02-09T14:22:23.088Z,4.93
2018-02-09T14:24:50.526Z,5.31
2018-02-09T14:27:18.039Z,5.18
2018-02-09T14:29:45.519Z,5.23
2018-02-09T14:32:12.956Z,5.56
2018-02-09T14:34:40.398Z,5.31
2018-02-09T14:37:07.848Z,5.34
2018-02-09T14:39:35.295Z,4.98
2018-02-09T14:42:03.261Z,5.32
2018-02-09T14:44:30.712Z,5.26
2018-02-09T14:46:58.169Z,5.14
2018-02-09T14:49:25.739Z,5.43
2018-02-09T14:51:53.158Z,5.69
2018-02-09T14:54:20.619Z,5.21
2018-02-09T14:56:48.056Z,4.79
2018-02-09T14:59:15.531Z,4.78
2018-02-09T15:01:43.009Z,5.21
2018-02-09T15:04:10.464Z,4.98
2018-02-09T15:06:37.945Z,5.47
2018-02-09T15:09:05.384Z,5.20
2018-02-09T15:11:34.320Z,5.44
2018-02-09T15:14:01.745Z,5.40
2018-02-09T15:16:29.252Z,5.63
2018-02-09T15:18:56.713Z,5.68
2018-02-09T15:21:24.176Z,5.69
2018-02-09T15:23:51.642Z,5.80
2018-02-09T15:26:19.135Z,5.56
2018-02-09T15:28:46.588Z,5.59
2018-02-09T15:31:14.121Z,5.52
2018-02-09T15:33:41.572Z,5.73
2018-02-09T15:36:09.036Z,5.39
2018-02-09T15:38:36.474Z,5.47
2018-02-09T15:41:03.923Z,5.65
2018-02-09T15:43:31.370Z,5.62
2018-02-09T15:45:58.797Z,5.61
2018-02-09T15:48:26.259Z,5.41
2018-02-09T15:50:53.733Z,5.26
2018-02-09T15:53:21.186Z,5.45
2018-02-09T15:55:48.660Z,5.40
2018-02-09T15:58:16.108Z,5.62
2018-02-09T16:00:43.563Z,5.50
2018-02-09T16:03:11.079Z,5.37
2018-02-09T16:05:39.512Z,5.57
2018-02-09T16:08:06.986Z,5.39
2018-02-09T16:10:34.420Z,5.34
2018-02-09T16:13:01.888Z,5.20
2018-02-09T16:15:29.377Z,5.51
2018-02-09T16:17:56.822Z,5.39
2018-02-09T16:20:24.265Z,5.57
2018-02-09T16:22:51.774Z,5.54
2018-02-09T16:25:19.720Z,5.44
2018-02-09T16:27:53.466Z,5.51
2018-02-09T16:30:22.060Z,5.55
2018-02-09T16:32:49.610Z,5.79
2018-02-09T16:35:17.035Z,5.70
2018-02-09T16:37:44.466Z,5.74
2018-02-09T16:40:11.956Z,5.56
2018-02-09T16:42:39.453Z,5.67
2018-02-09T16:45:06.919Z,5.62
2018-02-09T16:47:34.465Z,5.57
2018-02-09T16:50:01.917Z,5.71
2018-02-09T16:52:29.350Z,5.70
2018-02-09T16:54:56.804Z,5.58
2018-02-09T16:57:24.329Z,5.53
2018-02-09T16:59:51.947Z,5.69
2018-02-09T17:02:19.600Z,5.75
2018-02-09T17:04:47.065Z,5.74
2018-02-09T17:07:14.508Z,5.68
2018-02-09T17:09:41.979Z,5.48
2018-02-09T17:12:09.443Z,5.41
2018-02-09T17:14:36.919Z,5.45
2018-02-09T17:17:04.431Z,5.41
2018-02-09T17:19:31.918Z,5.38
2018-02-09T17:21:59.379Z,5.31
2018-02-09T17:24:26.818Z,5.13
2018-02-09T17:26:54.736Z,5.53
2018-02-09T17:29:22.194Z,5.49
2018-02-09T17:31:49.671Z,5.44
2018-02-09T17:34:17.113Z,4.90
2018-02-09T17:36:44.711Z,4.98
2018-02-09T17:39:12.141Z,5.43
2018-02-09T17:41:39.656Z,5.06
2018-02-09T17:44:07.286Z,5.32
2018-02-09T17:46:34.806Z,5.29
2018-02-09T17:49:02.244Z,5.32
2018-02-09T17:51:29.791Z,5.33
2018-02-09T17:53:57.228Z,5.09
2018-02-09T17:56:24.693Z,5.29
2018-02-09T17:58:52.152Z,5.53
2018-02-09T18:01:19.803Z,5.20
2018-02-09T18:03:47.257Z,5.32
2018-02-09T18:06:14.730Z,5.00
2018-02-09T18:08:42.184Z,5.03
2018-02-09T18:11:09.644Z,5.25
2018-02-09T18:13:40.889Z,4.92
2018-02-09T18:16:10.374Z,5.13
2018-02-09T18:18:38.047Z,5.28
2018-02-09T18:21:05.614Z,5.45
2018-02-09T18:23:33.121Z,5.26
2018-02-09T18:26:00.610Z,4.88
2018-02-09T18:28:28.118Z,5.46
2018-02-09T18:30:55.668Z,5.40
2018-02-09T18:33:23.133Z,5.37
2018-02-09T18:35:50.557Z,5.04
2018-02-09T18:38:18.033Z,5.22
2018-02-09T18:40:45.476Z,5.12
2018-02-09T18:43:13.028Z,5.39
2018-02-09T18:45:40.452Z,5.28
2018-02-09T18:48:07.876Z,5.27
2018-02-09T18:50:35.600Z,5.41
2018-02-09T18:53:03.048Z,5.58
2018-02-09T18:55:30.498Z,5.33
2018-02-09T18:57:58.067Z,5.07
2018-02-09T19:00:25.521Z,5.10
2018-02-09T19:02:52.970Z,4.70
2018-02-09T19:05:20.486Z,4.82
2018-02-09T19:07:47.956Z,4.79
2018-02-09T19:10:15.439Z,5.12
2018-02-09T19:12:42.876Z,5.10
2018-02-09T19:15:10.337Z,5.04
2018-02-09T19:17:37.778Z,5.33
2018-02-09T19:20:05.372Z,5.33
2018-02-09T19:22:32.800Z,5.21
2018-02-09T19:25:00.366Z,5.20
2018-02-09T19:27:27.803Z,5.48
2018-02-09T19:29:55.337Z,5.32
2018-02-09T19:32:23.301Z,5.50
2018-02-09T19:34:50.757Z,5.35
2018-02-09T19:37:18.215Z,5.52
2018-02-09T19:39:45.696Z,5.46
2018-02-09T19:42:13.133Z,5.31
2018-02-09T19:44:40.636Z,5.33
2018-02-09T19:47:08.096Z,5.39
2018-02-09T19:49:35.539Z,5.55
2018-02-09T19:52:02.996Z,5.41
2018-02-09T19:54:30.437Z,5.34
2018-02-09T19:56:57.893Z,5.33
2018-02-09T19:59:25.337Z,5.55
2018-02-09T20:01:52.785Z,5.36
2018-02-09T20:04:20.242Z,5.34
2018-02-09T20:06:47.735Z,5.56
2018-02-09T20:09:15.228Z,5.81
2018-02-09T20:11:42.737Z,5.51
2018-02-09T20:14:10.241Z,5.56
2018-02-09T20:16:37.696Z,5.56
2018-02-09T20:19:05.134Z,5.67
2018-02-09T20:21:32.656Z,5.56
2018-02-09T20:24:00.111Z,5.46
2018-02-09T20:26:27.565Z,5.53
2018-02-09T20:28:55.036Z,5.35
2018-02-09T20:31:22.534Z,5.48
2018-02-09T20:33:50.023Z,5.45
2018-02-09T20:36:17.533Z,5.51
2018-02-09T20:38:45.007Z,5.36
2018-02-09T20:41:12.669Z,5.38
2018-02-09T20:43:40.138Z,5.32
2018-02-09T20:46:07.562Z,5.45
2018-02-09T20:48:35.404Z,5.42
2018-02-09T20:51:02.840Z,5.40
2018-02-09T20:53:30.291Z,5.33
2018-02-09T20:55:57.757Z,5.39
2018-02-09T20:58:25.204Z,5.22
2018-02-09T21:00:52.660Z,5.28
2018-02-09T21:03:20.131Z,5.11
2018-02-09T21:05:47.588Z,5.31
2018-02-09T21:08:15.031Z,5.38
2018-02-09T21:10:42.473Z,5.27
2018-02-09T21:13:09.964Z,5.43
2018-02-09T21:15:37.406Z,5.51
2018-02-09T21:18:05.373Z,5.64
2018-02-09T21:20:33.877Z,5.44
2018-02-09T21:23:07.561Z,5.45
2018-02-09T21:25:35.415Z,5.21
2018-02-09T21:28:02.891Z,5.42
2018-02-09T21:30:30.357Z,5.39
2018-02-09T21:32:57.833Z,5.36
2018-02-09T21:35:25.284Z,5.24
2018-02-09T21:37:52.823Z,5.31
2018-02-09T21:40:20.360Z,5.39
2018-02-09T21:42:49.834Z,5.43
2018-02-09T21:45:17.339Z,5.46
2018-02-09T21:47:44.789Z,5.53
2018-02-09T21:50:12.239Z,5.55
2018-02-09T21:52:39.713Z,5.41
2018-02-09T21:55:07.181Z,5.45
2018-02-09T21:57:35.203Z,5.58
2018-02-09T22:00:02.809Z,5.76
2018-02-09T22:02:30.450Z,5.64
2018-02-09T22:04:58.037Z,5.35
2018-02-09T22:07:25.728Z,5.54
2018-02-09T22:09:54.441Z,5.49
2018-02-09T22:12:23.903Z,5.55
2018-02-09T22:14:51.425Z,5.51
2018-02-09T22:17:20.402Z,5.74
2018-02-09T22:19:48.574Z,5.55
2018-02-09T22:22:16.085Z,5.34
2018-02-09T22:24:43.784Z,5.62
2018-02-09T22:27:11.550Z,5.56
2018-02-09T22:29:39.213Z,5.59
2018-02-09T22:32:06.735Z,5.41
2018-02-09T22:34:35.295Z,5.46
2018-02-09T22:37:03.094Z,5.33
2018-02-09T22:39:30.593Z,5.33
2018-02-09T22:42:03.687Z,5.29
2018-02-09T22:44:31.255Z,5.50
2018-02-09T22:46:58.724Z,5.48
2018-02-09T22:49:26.161Z,5.49
2018-02-09T22:51:53.663Z,5.35
2018-02-09T22:54:21.253Z,5.47
2018-02-09T22:56:48.788Z,5.83
2018-02-09T22:59:16.333Z,5.50
2018-02-09T23:01:43.802Z,5.49
2018-02-09T23:04:11.253Z,5.36
2018-02-09T23:06:38.732Z,5.34
2018-02-09T23:09:06.165Z,5.42
2018-02-09T23:11:33.767Z,5.28
2018-02-09T23:14:01.397Z,5.38
2018-02-09T23:16:28.846Z,5.28
2018-02-09T23:18:56.309Z,5.31
2018-02-09T23:21:23.767Z,5.26
2018-02-09T23:23:51.240Z,5.54
2018-02-09T23:26:18.690Z,5.40
2018-02-09T23:28:46.137Z,5.65
2018-02-09T23:31:13.596Z,5.29
2018-02-09T23:33:41.174Z,5.44
2018-02-09T23:36:08.621Z,5.29
2018-02-09T23:38:36.148Z,5.34
2018-02-09T23:41:03.587Z,5.14
2018-02-09T23:43:31.070Z,5.35
2018-02-09T23:45:58.531Z,5.26
2018-02-09T23:48:26.009Z,5.33
2018-02-09T23:50:53.455Z,5.20
2018-02-09T23:53:20.920Z,5.27
